Decoded Metar for ESNQ (KIRUNA in SWEDEN) (IATA:KRN) | Meteo·Mobile Aviation Weather
aviador You're here:

ESNQ Decoded Metar

KIRUNA in SWEDEN
Report Time2019-01-22 00:20:00
UTC Time2019-01-22 00:39:52
Flight Rules vfr VFR
Wind220° at 06 kt
W.Decomp.*RWY 21: 6.0 kt HW 0.3 kt RCW
W.Rank220° ranks 2
Current wind is below 220° avg. (7.1)
Visibility9999 m
Phenomena:N/A
Clouds:N/A
Expected CloudBase > 800 ft AGL from Temp-Dew spread
CeilingNone
Temp-15°C (ISA -27)
Dew Point-17°C (85% RH)
AAT-20.6°C
QNH1006 hPa
Density Alt-1,657 ft
Elevation1,483 ft
Report Wrong Elevation
Raw Report
ESNQ 220020Z AUTO 22006KT 9999 NCD M15/M17 Q1006=

Extra information for ESNQ:More info

Metar Taf Metar & Taf Last 4 Metars F.Rules Stats Wind Profile Meteogram Temp Stats Airport Information Weather charts Add Link Nearby VenuesMetar ALERT Operation Metar Decoded Social comments